createdAt,value
2023-05-09T00:06:54.011Z,0.04
2023-05-09T00:14:00.167Z,0.03
2023-05-09T01:08:13.389Z,0.02
2023-05-09T01:10:10.235Z,0.03
2023-05-09T01:22:37.778Z,0.02
2023-05-09T01:29:46.938Z,0.03
2023-05-09T01:35:27.148Z,0.02
2023-05-09T01:49:58.404Z,0.01
2023-05-09T02:33:52.275Z,0.02
2023-05-09T02:45:59.688Z,0.03
2023-05-09T02:50:39.279Z,0.04
2023-05-09T02:53:09.265Z,0.05
2023-05-09T02:55:25.293Z,0.06
2023-05-09T02:57:27.624Z,0.08
2023-05-09T03:00:17.575Z,0.1
2023-05-09T03:02:53.657Z,0.13
2023-05-09T03:05:15.968Z,0.18
2023-05-09T03:07:23.974Z,0.26
2023-05-09T03:10:20.034Z,0.44
2023-05-09T03:13:02.388Z,0.64
2023-05-09T03:15:30.548Z,0.78
2023-05-09T03:17:44.737Z,0.99
2023-05-09T03:19:45.162Z,1.63
2023-05-09T03:22:33.534Z,2.49
2023-05-09T03:25:07.903Z,4.38
2023-05-09T03:27:28.243Z,6.26
2023-05-09T03:29:34.838Z,9.53
2023-05-09T03:32:29.218Z,16.35
2023-05-09T03:35:09.504Z,23.46
2023-05-09T03:37:36.156Z,33.46
2023-05-09T03:39:48.301Z,44.74
2023-05-09T03:41:46.850Z,53.14
2023-05-09T03:44:33.485Z,58.66
2023-05-09T03:47:06.159Z,67.6
2023-05-09T03:49:24.696Z,66.04
2023-05-09T03:51:29.472Z,76.34
2023-05-09T03:54:22.141Z,93.76
2023-05-09T03:57:00.852Z,107.76
2023-05-09T03:59:25.199Z,125
2023-05-09T04:01:36.894Z,127.04
2023-05-09T04:03:32.705Z,152.04
2023-05-09T04:06:17.150Z,202.6
2023-05-09T04:08:48.003Z,240.9
2023-05-09T04:11:04.703Z,300
2023-05-09T04:13:07.762Z,359.6
2023-05-09T04:15:58.280Z,439.8
2023-05-09T04:18:35.131Z,461.1
2023-05-09T04:20:57.938Z,499.6
2023-05-09T04:23:07.010Z,540.3
2023-05-09T04:26:03.833Z,704
2023-05-09T04:28:46.736Z,960.3
2023-05-09T04:31:15.264Z,1147.5
2023-05-09T04:33:30.205Z,1253.1
2023-05-09T04:35:31.248Z,1244.1
2023-05-09T04:38:20.176Z,1198.7
2023-05-09T04:40:55.293Z,1161.9
2023-05-09T04:43:16.419Z,1123.8
2023-05-09T04:45:23.522Z,1109.7
2023-05-09T04:48:18.785Z,1066.8
2023-05-09T04:50:59.997Z,1082.2
2023-05-09T04:53:27.266Z,1168.3
2023-05-09T04:55:40.438Z,1269.1
2023-05-09T04:57:39.789Z,1401.6
2023-05-09T05:00:26.972Z,1483.5
2023-05-09T05:03:00.193Z,1516.1
2023-05-09T05:05:24.505Z,1556.4
2023-05-09T05:07:24.996Z,1629.4
2023-05-09T05:10:18.631Z,1655
2023-05-09T05:12:58.122Z,1619.8
2023-05-09T05:15:23.689Z,1577.6
2023-05-09T05:17:35.236Z,1524.4
2023-05-09T05:19:32.945Z,1498.8
2023-05-09T05:22:18.155Z,1491.8
2023-05-09T05:24:30.921Z,1700
2023-05-09T05:26:29.643Z,1616.6
2023-05-09T05:29:16.317Z,1549.4
2023-05-09T05:31:49.191Z,1510.4
2023-05-09T05:34:08.008Z,1543.6
2023-05-09T05:36:12.854Z,1887
2023-05-09T05:39:05.787Z,2048
2023-05-09T05:41:44.958Z,2057
2023-05-09T05:44:09.576Z,2100
2023-05-09T05:46:20.683Z,2122
2023-05-09T05:48:17.764Z,2261
2023-05-09T05:51:02.666Z,2369
2023-05-09T05:53:33.576Z,2449
2023-05-09T05:55:50.629Z,2515
2023-05-09T05:57:53.619Z,2634
2023-05-09T06:00:44.618Z,2933
2023-05-09T06:03:21.899Z,3202
2023-05-09T06:05:45.168Z,3368
2023-05-09T06:07:54.203Z,3522
2023-05-09T06:10:51.450Z,4366
2023-05-09T06:13:34.184Z,4416
2023-05-09T06:16:11.575Z,3872
2023-05-09T06:18:18.403Z,3377
2023-05-09T06:20:19.742Z,2908
2023-05-09T06:23:08.948Z,2577
2023-05-09T06:25:44.168Z,2442
2023-05-09T06:28:05.617Z,2395
2023-05-09T06:30:24.456Z,2485
2023-05-09T06:33:08.183Z,2577
2023-05-09T06:35:49.853Z,2479
2023-05-09T06:38:17.150Z,2631
2023-05-09T06:40:30.605Z,2818
2023-05-09T06:42:30.191Z,2880
2023-05-09T06:45:17.915Z,2799
2023-05-09T06:47:51.190Z,2656
2023-05-09T06:50:10.648Z,2526
2023-05-09T06:52:16.336Z,2393
2023-05-09T06:55:09.930Z,2408
2023-05-09T06:57:49.384Z,2689
2023-05-09T07:00:15.048Z,2967
2023-05-09T07:02:26.820Z,2772
2023-05-09T07:04:24.056Z,2696
2023-05-09T07:07:09.888Z,3139
2023-05-09T07:09:41.748Z,3632
2023-05-09T07:11:59.476Z,4308
2023-05-09T07:14:03.467Z,4345
2023-05-09T07:17:00.040Z,4400
2023-05-09T07:19:33.221Z,4083
2023-05-09T07:21:57.014Z,4785
2023-05-09T07:24:07.045Z,5031
2023-05-09T07:26:03.045Z,4855
2023-05-09T07:28:46.976Z,4911
2023-05-09T07:31:17.082Z,5137
2023-05-09T07:33:33.229Z,5818
2023-05-09T07:35:35.132Z,5813
2023-05-09T07:38:25.252Z,4738
2023-05-09T07:41:01.327Z,4314
2023-05-09T07:43:23.434Z,3870
2023-05-09T07:45:31.748Z,3139
2023-05-09T07:48:27.954Z,2551
2023-05-09T07:51:10.105Z,2947
2023-05-09T07:53:38.235Z,2390
2023-05-09T07:55:52.122Z,2046
2023-05-09T07:57:52.473Z,2182
2023-05-09T08:00:40.725Z,2600
2023-05-09T08:03:15.265Z,2238
2023-05-09T08:05:35.434Z,1701
2023-05-09T08:07:41.791Z,1416.3
2023-05-09T08:10:36.311Z,1288.6
2023-05-09T08:13:16.745Z,1472
2023-05-09T08:15:43.171Z,1433.6
2023-05-09T08:17:55.656Z,1535.3
2023-05-09T08:19:54.327Z,1839
2023-05-09T08:22:40.865Z,1980
2023-05-09T08:25:13.557Z,1941
2023-05-09T08:27:32.090Z,1790
2023-05-09T08:29:36.767Z,1720
2023-05-09T08:32:29.327Z,1972
2023-05-09T08:35:08.143Z,2259
2023-05-09T08:37:32.826Z,1928
2023-05-09T08:39:43.563Z,1923
2023-05-09T08:41:40.468Z,1964
2023-05-09T08:44:25.289Z,2122
2023-05-09T08:46:55.660Z,2045
2023-05-09T08:49:12.373Z,2320
2023-05-09T08:51:15.364Z,2319
2023-05-09T08:54:06.208Z,2298
2023-05-09T08:56:42.985Z,2973
2023-05-09T08:59:06.035Z,3330
2023-05-09T09:01:15.007Z,3104
2023-05-09T09:04:11.791Z,3622
2023-05-09T09:06:54.826Z,4065
2023-05-09T09:09:23.855Z,3918
2023-05-09T09:11:38.999Z,2704
2023-05-09T09:13:40.108Z,2763
2023-05-09T09:16:29.200Z,2982
2023-05-09T09:19:04.201Z,3560
2023-05-09T09:21:25.248Z,3534
2023-05-09T09:23:32.497Z,2690
2023-05-09T09:26:27.640Z,1877
2023-05-09T09:29:08.726Z,2534
2023-05-09T09:31:36.074Z,4032
2023-05-09T09:33:49.352Z,3342
2023-05-09T09:35:48.677Z,3198
2023-05-09T09:38:35.588Z,3837
2023-05-09T09:41:08.901Z,4128
2023-05-09T09:43:28.287Z,4454
2023-05-09T09:45:33.882Z,3306
2023-05-09T09:48:27.255Z,2882
2023-05-09T09:51:06.681Z,1703
2023-05-09T09:53:32.046Z,1043.8
2023-05-09T09:55:45.441Z,863.3
2023-05-09T09:57:41.334Z,1178.8
2023-05-09T10:00:26.751Z,2534
2023-05-09T10:02:58.489Z,3310
2023-05-09T10:05:16.147Z,2644
2023-05-09T10:07:19.822Z,3169
2023-05-09T10:10:11.545Z,4110
2023-05-09T10:12:49.311Z,3220
2023-05-09T10:15:13.000Z,3152
2023-05-09T10:19:18.834Z,3431
2023-05-09T10:22:02.804Z,3915
2023-05-09T10:24:32.284Z,3491
2023-05-09T10:26:48.189Z,2553
2023-05-09T10:28:49.678Z,2851
2023-05-09T10:31:39.454Z,3252
2023-05-09T10:34:15.313Z,3772
2023-05-09T10:36:37.262Z,3306
2023-05-09T10:38:45.220Z,3202
2023-05-09T10:41:41.124Z,3852
2023-05-09T10:44:23.156Z,3697
2023-05-09T10:46:51.197Z,3566
2023-05-09T10:49:05.064Z,3413
2023-05-09T10:51:05.264Z,3578
2023-05-09T10:53:53.247Z,4980
2023-05-09T10:56:27.299Z,5844
2023-05-09T10:58:47.527Z,5616
2023-05-09T11:00:57.203Z,5332
2023-05-09T11:03:47.876Z,5688
2023-05-09T11:06:27.966Z,4477
2023-05-09T11:08:54.233Z,3612
2023-05-09T11:11:06.413Z,4865
2023-05-09T11:13:04.914Z,5542
2023-05-09T11:15:51.112Z,5121
2023-05-09T11:18:23.288Z,5547
2023-05-09T11:20:41.138Z,6865
2023-05-09T11:22:45.550Z,6876
2023-05-09T11:25:37.781Z,6223
2023-05-09T11:28:16.019Z,5606
2023-05-09T11:30:40.550Z,4913
2023-05-09T11:32:50.978Z,5150
2023-05-09T11:34:47.465Z,5139
2023-05-09T11:37:31.952Z,4934
2023-05-09T11:40:02.436Z,4542
2023-05-09T11:42:18.927Z,4451
2023-05-09T11:44:21.674Z,3889
2023-05-09T11:47:12.152Z,3115
2023-05-09T11:49:48.658Z,2739
2023-05-09T11:52:11.166Z,2885
2023-05-09T11:54:19.938Z,1788
2023-05-09T11:57:16.516Z,971.2
2023-05-09T11:59:59.048Z,1296.3
2023-05-09T12:02:27.949Z,1443.2
2023-05-09T12:04:42.836Z,1929
2023-05-09T12:06:44.415Z,2080
2023-05-09T12:09:32.502Z,3626
2023-05-09T12:12:06.954Z,5022
2023-05-09T12:14:27.791Z,4320
2023-05-09T12:16:35.004Z,3281
2023-05-09T12:19:29.664Z,2717
2023-05-09T12:22:10.473Z,3589
2023-05-09T12:24:37.296Z,3424
2023-05-09T12:26:50.410Z,2894
2023-05-09T12:28:49.458Z,2862
2023-05-09T12:31:36.350Z,2767
2023-05-09T12:34:09.536Z,3457
2023-05-09T12:36:28.685Z,3960
2023-05-09T12:38:33.859Z,3166
2023-05-09T12:41:35.418Z,1982
2023-05-09T12:44:06.208Z,2325
2023-05-09T12:46:31.380Z,2549
2023-05-09T12:48:42.604Z,2594
2023-05-09T12:50:40.116Z,2744
2023-05-09T12:53:25.415Z,2954
2023-05-09T12:55:56.723Z,2492
2023-05-09T12:58:14.261Z,2497
2023-05-09T13:00:17.846Z,2546
2023-05-09T13:03:08.864Z,2472
2023-05-09T13:05:46.375Z,4384
2023-05-09T13:08:09.961Z,5111
2023-05-09T13:10:19.557Z,4829
2023-05-09T13:12:15.423Z,4555
2023-05-09T13:14:59.059Z,4215
2023-05-09T13:17:28.666Z,4163
2023-05-09T13:19:44.255Z,4285
2023-05-09T13:21:46.168Z,4403
2023-05-09T13:24:35.867Z,3834
2023-05-09T13:27:11.494Z,3724
2023-05-09T13:29:33.371Z,3591
2023-05-09T13:31:41.251Z,3361
2023-05-09T13:34:36.976Z,2583
2023-05-09T13:37:18.946Z,2270
2023-05-09T13:39:46.882Z,2769
2023-05-09T13:42:00.847Z,3319
2023-05-09T13:44:01.007Z,4078
2023-05-09T13:46:48.954Z,4116
2023-05-09T13:49:22.865Z,2853
2023-05-09T13:51:42.822Z,1957
2023-05-09T13:53:48.596Z,1390
2023-05-09T13:56:42.492Z,1271.6
2023-05-09T13:59:22.489Z,1356.1
2023-05-09T14:01:48.835Z,1404.1
2023-05-09T14:04:01.130Z,1480.9
2023-05-09T14:05:59.332Z,1666
2023-05-09T14:08:45.657Z,1952
2023-05-09T14:11:17.948Z,2367
2023-05-09T14:13:36.208Z,2610
2023-05-09T14:15:40.757Z,2199
2023-05-09T14:18:33.019Z,2216
2023-05-09T14:21:11.319Z,3150
2023-05-09T14:23:35.636Z,3005
2023-05-09T14:25:46.174Z,2293
2023-05-09T14:27:42.725Z,1587.8
2023-05-09T14:30:27.074Z,1189.7
2023-05-09T14:32:57.635Z,1121.2
2023-05-09T14:35:14.253Z,1030
2023-05-09T14:37:16.775Z,1048.9
2023-05-09T14:40:07.409Z,1266.5
2023-05-09T14:42:44.020Z,1571.8
2023-05-09T14:45:06.206Z,1825
2023-05-09T14:47:15.276Z,1456.6
2023-05-09T14:50:11.695Z,1272.6
2023-05-09T14:52:54.350Z,1185.2
2023-05-09T14:55:23.018Z,1037.7
2023-05-09T14:57:37.921Z,992.6
2023-05-09T14:59:38.830Z,897.9
2023-05-09T15:02:27.537Z,992.6
2023-05-09T15:05:02.552Z,1023.6
2023-05-09T15:07:23.542Z,1268.4
2023-05-09T15:09:30.532Z,1424
2023-05-09T15:12:25.611Z,1302.4
2023-05-09T15:15:06.697Z,1036.1
2023-05-09T15:17:33.763Z,818.8
2023-05-09T15:19:46.776Z,624.4
2023-05-09T15:21:46.069Z,678.4
2023-05-09T15:24:33.160Z,746.8
2023-05-09T15:27:06.310Z,806.7
2023-05-09T15:29:25.667Z,839
2023-05-09T15:31:31.217Z,842.5
2023-05-09T15:34:24.268Z,695.6
2023-05-09T15:37:03.189Z,612.6
2023-05-09T15:39:28.520Z,645.4
2023-05-09T15:41:39.995Z,635.2
2023-05-09T15:43:37.346Z,593.9
2023-05-09T15:46:22.801Z,566.4
2023-05-09T15:48:35.158Z,571
2023-05-09T15:50:33.647Z,588
2023-05-09T15:53:19.972Z,614.7
2023-05-09T15:55:52.540Z,504
2023-05-09T15:58:11.148Z,548.9
2023-05-09T16:00:15.832Z,649.2
2023-05-09T16:03:08.597Z,744.6
2023-05-09T16:05:47.081Z,700.4
2023-05-09T16:08:11.923Z,742.4
2023-05-09T16:10:27.632Z,977.9
2023-05-09T16:12:19.480Z,1216.3
2023-05-09T16:15:04.197Z,1169.6
2023-05-09T16:17:34.883Z,897.6
2023-05-09T16:19:51.843Z,856.9
2023-05-09T16:21:54.721Z,881.6
2023-05-09T16:24:45.486Z,1016.9
2023-05-09T16:27:22.000Z,656.9
2023-05-09T16:29:44.933Z,645.7
2023-05-09T16:31:53.888Z,547.5
2023-05-09T16:34:50.816Z,479.5
2023-05-09T16:37:35.546Z,324.3
2023-05-09T16:40:02.758Z,238.4
2023-05-09T16:42:17.718Z,239.6
2023-05-09T16:44:18.933Z,243.9
2023-05-09T16:47:07.956Z,371.5
2023-05-09T16:49:42.965Z,292.6
2023-05-09T16:52:04.266Z,276.2
2023-05-09T16:54:11.490Z,369.1
2023-05-09T16:57:06.637Z,324.8
2023-05-09T16:59:47.979Z,299.4
2023-05-09T17:02:15.286Z,249.6
2023-05-09T17:04:28.617Z,224.9
2023-05-09T17:06:28.150Z,144.04
2023-05-09T17:09:15.450Z,189.6
2023-05-09T17:11:48.834Z,316.9
2023-05-09T17:14:08.486Z,301.5
2023-05-09T17:16:13.826Z,333.4
2023-05-09T17:19:06.807Z,396.9
2023-05-09T17:21:46.267Z,407
2023-05-09T17:24:11.879Z,453.1
2023-05-09T17:26:23.533Z,425.2
2023-05-09T17:28:21.127Z,410
2023-05-09T17:31:06.907Z,390.8
2023-05-09T17:33:38.581Z,393.4
2023-05-09T17:35:56.285Z,390.8
2023-05-09T17:38:00.239Z,382.7
2023-05-09T17:40:51.998Z,353.2
2023-05-09T17:43:29.780Z,306.9
2023-05-09T17:45:53.570Z,253.8
2023-05-09T17:48:03.560Z,226
2023-05-09T17:49:59.491Z,237.2
2023-05-09T17:52:43.296Z,233.6
2023-05-09T17:55:13.439Z,260.9
2023-05-09T17:57:29.481Z,270
2023-05-09T17:59:31.545Z,231.6
2023-05-09T18:02:21.698Z,177.6
2023-05-09T18:04:57.858Z,137.08
2023-05-09T18:07:19.988Z,114.64
2023-05-09T18:09:27.999Z,95.52
2023-05-09T18:12:24.093Z,80.6
2023-05-09T18:15:06.292Z,66.1
2023-05-09T18:17:34.459Z,62.24
2023-05-09T18:19:48.798Z,44.7
2023-05-09T18:21:49.186Z,34.72
2023-05-09T18:24:39.561Z,20.2
2023-05-09T18:27:11.869Z,12.22
2023-05-09T18:29:32.332Z,9.81
2023-05-09T18:31:38.992Z,11.47
2023-05-09T18:34:33.158Z,13.89
2023-05-09T18:37:13.756Z,13.97
2023-05-09T18:39:40.077Z,12.99
2023-05-09T18:41:52.515Z,10.49
2023-05-09T18:43:51.140Z,8.98
2023-05-09T18:46:37.650Z,7.2
2023-05-09T18:49:10.159Z,6.28
2023-05-09T18:51:28.795Z,5.13
2023-05-09T18:53:33.503Z,6.25
2023-05-09T18:56:26.065Z,6.17
2023-05-09T18:59:04.840Z,4.72
2023-05-09T19:01:29.237Z,3.15
2023-05-09T19:03:40.022Z,2.79
2023-05-09T19:05:37.028Z,2.43
2023-05-09T19:08:21.991Z,2.14
2023-05-09T19:10:52.761Z,1.85
2023-05-09T19:13:09.698Z,1.43
2023-05-09T19:15:12.529Z,1.14
2023-05-09T19:18:03.406Z,0.72
2023-05-09T19:20:40.218Z,0.52
2023-05-09T19:23:03.270Z,0.41
2023-05-09T19:28:09.241Z,0.22
2023-05-09T19:30:52.443Z,0.14
2023-05-09T19:33:21.599Z,0.1
2023-05-09T19:35:36.744Z,0.09
2023-05-09T19:37:38.116Z,0.08
2023-05-09T19:40:27.334Z,0.07
2023-05-09T19:43:02.559Z,0.06
2023-05-09T19:50:26.497Z,0.07
2023-05-09T19:55:34.760Z,0.06
2023-05-09T19:57:48.226Z,0.05
2023-05-09T20:02:35.208Z,0.04
2023-05-09T20:07:28.247Z,0.03
2023-05-09T20:36:51.070Z,0.02
2023-05-09T20:41:25.051Z,0.03
2023-05-09T20:50:50.422Z,0.02
2023-05-09T20:55:42.368Z,0.03
2023-05-09T21:05:45.097Z,0.04
2023-05-09T21:10:55.531Z,0.03
2023-05-09T21:37:11.970Z,0.02
2023-05-09T21:42:31.014Z,0.03
2023-05-09T21:58:58.352Z,0.02
2023-05-09T22:01:45.083Z,0.03
2023-05-09T22:04:14.256Z,0.02
2023-05-09T22:16:25.036Z,0.01
2023-05-09T22:18:34.336Z,0.02
2023-05-09T22:26:42.895Z,0.01
2023-05-09T22:28:58.093Z,0.02
2023-05-09T22:33:48.623Z,0.01
2023-05-09T22:40:52.581Z,0.02
2023-05-09T22:43:47.945Z,0.01
2023-05-09T22:48:56.645Z,0.08
2023-05-09T22:55:56.849Z,0.02
2023-05-09T23:22:38.038Z,0.03
2023-05-09T23:30:11.366Z,0.04
2023-05-09T23:32:35.348Z,0.03
2023-05-09T23:34:46.701Z,0.04
2023-05-09T23:39:25.146Z,0.03
2023-05-09T23:41:55.044Z,0.04
2023-05-09T23:51:39.431Z,0.05
2023-05-09T23:54:01.309Z,0.03
